LIRPLXGB

Guest
Details From LIRP - Pisa
To LXGB - Gibraltar
Flight Number -
Tags Generated
Created
Modified
Stats Distance 864 nm / 1,600 km
Max Altitude 0 ft / 0 m
Waypoints 5
Social Downloads 0
Likes 0
Share VATSIM

Download

Looking for another format? Having issues loading an existing format? Contact us
Advertisement - Login to hide

Notes

Generated

Route

LIRP LUMAS URIAS BRIKE LXGB

ID Type Via Altitude Latitude Longitude Leg Dist Tot Dist Heading (true) Name
O LIRP APT - 0 ft / 0 m 43.67384˚ 10.38072˚ - 0 nm - -
LUMAS FIX - 0 ft / 0 m 41.73333˚ 4.66667˚ 277 nm 277 nm 247° / 243° -
URIAS FIX - 0 ft / 0 m 39.23582˚ -0.49988˚ 279 nm 557 nm 239° / 236° -
BRIKE FIX - 0 ft / 0 m 36.50478˚ -5.41645˚ 284 nm 842 nm 236° / 233° -
O LXGB APT - 0 ft / 0 m 36.15080˚ -5.35977˚ 21 nm 863 nm 173° / 173° -

Altitude Profile

Advertisement - Login to hide

Weather


0- 5 10 15 20 25 30 35+ Temperature / ° C

Clouds and Precipitation
Forecast for 2017-12-13 06:00 UTC. Updated 19 minutes ago

Ground ~20,000 ft ~40,000 ft Winds

LIRP

Details ICAO LIRP (PSA)
Name PISA
Region Italy
Timezone Europe/Rome (UTC+1.0)
Stats Elevation 6 ft / 2 m (AMSL)
Location 43.683883° 10.392724°
Runways 2
Magnetic Variation 2.703° E

METAR

LIRP 130315Z 25007KT 9999 FEW025 10/07 Q1016 NOSIG

Decode

TAF

TAF LIRP 122300Z 1300/1324 15005KT 9999 SCT030 SCT050 TEMPO 1300/1306 22010KT 5000 RA BR TEMPO 1318/1324 3000 RA BR

Decode

Departure Runways

ID Width Length Bearing (true) Bearing (mag) Surface Threshold Offset Overrun Length
04L 141 ft / 43 m 9,158 ft / 2,791 m 36.70° 34.00° Asphalt 979 ft / 298 m 0 ft / 0 m
04R 148 ft / 45 m 9,819 ft / 2,993 m 36.72° 34.02° Asphalt 490 ft / 149 m 0 ft / 0 m
22L 148 ft / 45 m 9,819 ft / 2,993 m 216.73° 214.03° Asphalt 843 ft / 257 m 0 ft / 0 m
22R 141 ft / 43 m 9,158 ft / 2,791 m 216.72° 214.02° Asphalt 0 ft / 0 m 0 ft / 0 m

LXGB

Details ICAO LXGB (GIB)
Name Gibraltar
Region Gibralter
Timezone Europe/Gibraltar (UTC+1.0)
Stats Elevation 15 ft / 5 m (AMSL)
Location 36.151209° -5.349664°
Runways 1
Magnetic Variation 1.123° W

METAR

LXGB 130250Z AUTO 24005KT 9999 // NCD 09/01 Q1025

Decode

TAF

Not found

Destination Runways

ID Width Length Bearing (true) Bearing (mag) Surface Threshold Offset Overrun Length
27 151 ft / 46 m 5,992 ft / 1,826 m 267.56° 268.68° Asphalt 367 ft / 112 m 89 ft / 27 m
9 151 ft / 46 m 5,992 ft / 1,826 m 87.54° 88.66° Asphalt 299 ft / 91 m 52 ft / 16 m